Time;durP1;ratioP1;P1;durP2;ratioP2;P2;SDS_P1;SDS_P2;PMS_P1;PMS_P2;Temp;Humidity;BMP_temperature;BMP_pressure;BME280_temperature;BME280_humidity;BME280_pressure;Samples;Min_cycle;Max_cycle;Signal;HPM_P1;HPM_P2
2022/09/20 00:01:49;;;;;;;3.63;1.17;;;;;;;-143.84;60.98;45123.34;5129926;27;20426;-74
2022/09/20 00:04:16;;;;;;;2.50;1.67;;;;;;;-143.84;61.40;45123.34;5130014;27;20431;-75
2022/09/20 00:06:43;;;;;;;4.70;1.37;;;;;;;-143.84;61.16;45104.28;5130301;27;20441;-75
2022/09/20 00:09:12;;;;;;;3.93;1.30;;;;;;;-143.84;61.42;45108.09;5130509;27;20847;-74
2022/09/20 00:11:39;;;;;;;2.30;1.10;;;;;;;-143.84;61.47;45096.66;5130187;27;20476;-74
2022/09/20 00:14:08;;;;;;;3.57;1.40;;;;;;;-143.84;61.60;45089.06;5130319;27;20433;-74
2022/09/20 00:16:38;;;;;;;1.40;1.30;;;;;;;-143.84;61.38;45100.47;5129952;27;20933;-74
2022/09/20 00:19:06;;;;;;;4.70;1.17;;;;;;;-143.84;61.58;45121.44;5129755;27;20955;-74
2022/09/20 00:21:36;;;;;;;1.53;1.07;;;;;;;-143.84;61.53;45094.78;5133077;27;20486;-74
2022/09/20 00:24:05;;;;;;;6.23;1.10;;;;;;;-143.84;61.55;45119.53;5133767;27;20446;-74
2022/09/20 00:26:33;;;;;;;2.17;1.40;;;;;;;-143.84;61.92;45119.53;5134152;27;20503;-74
2022/09/20 00:29:00;;;;;;;3.60;1.40;;;;;;;-143.84;62.21;45104.28;5134032;27;20457;-74
2022/09/20 00:31:27;;;;;;;4.97;1.40;;;;;;;-143.84;61.67;45106.19;5133225;27;20510;-74
2022/09/20 00:36:40;;;;;;;12.13;1.73;;;;;;;-143.84;61.56;45115.72;5133811;27;20896;-74
2022/09/20 00:39:10;;;;;;;2.23;1.27;;;;;;;-143.84;61.56;45132.84;5133806;27;20460;-74
2022/09/20 00:41:39;;;;;;;2.40;1.10;;;;;;;-143.84;61.17;45087.16;5133763;27;20442;-74
2022/09/20 00:44:39;;;;;;;7.40;1.30;;;;;;;-143.84;61.20;45068.13;5133741;27;20461;-75
2022/09/20 00:47:11;;;;;;;1.30;1.20;;;;;;;-143.84;61.42;45127.13;5133584;27;20446;-75
2022/09/20 00:49:39;;;;;;;5.90;1.23;;;;;;;-143.84;61.19;45106.19;5130124;27;20860;-74
2022/09/20 00:52:06;;;;;;;1.80;1.30;;;;;;;-143.84;61.35;45079.53;5112537;28;21011;-74
2022/09/20 00:54:34;;;;;;;4.80;1.10;;;;;;;-143.84;61.31;45115.72;5112736;28;20937;-74
2022/09/20 00:57:03;;;;;;;1.43;1.30;;;;;;;-143.84;61.71;45108.09;5112780;28;20435;-74
2022/09/20 00:59:33;;;;;;;1.80;1.50;;;;;;;-143.84;61.61;45104.28;5112544;28;20495;-74
2022/09/20 01:02:06;;;;;;;7.63;1.50;;;;;;;-143.84;61.43;45085.25;5112151;28;20843;-74
2022/09/20 01:04:37;;;;;;;1.33;1.20;;;;;;;-143.84;61.36;45151.91;5110746;28;20438;-74
2022/09/20 01:07:06;;;;;;;1.43;1.33;;;;;;;-143.84;61.76;45077.63;5110902;28;20446;-74
2022/09/20 01:09:33;;;;;;;6.97;1.20;;;;;;;-143.84;62.09;45090.97;5111071;28;20491;-74
2022/09/20 01:12:06;;;;;;;1.37;1.27;;;;;;;-143.84;61.62;45081.44;5111604;28;20475;-74
2022/09/20 01:14:34;;;;;;;1.50;1.30;;;;;;;-143.84;61.38;45104.28;5111664;28;20503;-74
2022/09/20 01:17:04;;;;;;;0.97;0.87;;;;;;;-143.84;61.35;45104.28;5112151;28;20488;-74
2022/09/20 01:19:40;;;;;;;4.30;1.10;;;;;;;-143.84;61.37;45111.91;5112673;27;20957;-74
2022/09/20 01:22:16;;;;;;;5.13;1.10;;;;;;;-143.84;61.50;45077.63;5112048;28;20534;-74
2022/09/20 01:24:51;;;;;;;1.30;1.20;;;;;;;-143.84;61.39;45083.34;5112120;28;20797;-74
2022/09/20 01:27:26;;;;;;;1.00;0.90;;;;;;;-143.84;61.20;45104.28;5112007;28;20449;-74
2022/09/20 01:30:15;;;;;;;1.30;1.17;;;;;;;-143.84;61.38;45090.97;5111786;28;20985;-74
2022/09/20 01:32:52;;;;;;;1.17;0.80;;;;;;;-143.84;61.50;45102.38;5110957;28;20491;-74
2022/09/20 01:35:23;;;;;;;3.10;1.20;;;;;;;-143.84;61.88;45110.00;5111778;28;20958;-74
2022/09/20 01:38:09;;;;;;;1.87;1.10;;;;;;;-143.84;61.73;45094.78;5111742;28;20434;-74
2022/09/20 01:40:43;;;;;;;2.90;1.20;;;;;;;-143.84;61.67;45098.56;5111823;28;20835;-74
2022/09/20 01:43:19;;;;;;;1.33;1.23;;;;;;;-143.84;61.46;45119.53;5111985;28;20456;-74
2022/09/20 01:45:49;;;;;;;2.80;1.20;;;;;;;-143.84;61.47;45098.56;5111497;28;20433;-74
2022/09/20 01:48:27;;;;;;;1.07;0.97;;;;;;;-143.84;61.22;45100.47;5128840;27;20517;-74
2022/09/20 01:51:33;;;;;;;1.43;1.10;;;;;;;-143.84;61.83;45104.28;5132009;27;20449;-74
2022/09/20 01:54:39;;;;;;;3.37;1.37;;;;;;;-143.84;62.29;45098.56;5110171;27;20444;-74
2022/09/20 01:57:36;;;;;;;1.30;1.20;;;;;;;-143.84;62.59;45115.72;5113992;27;20437;-74
2022/09/20 02:00:08;;;;;;;1.20;1.10;;;;;;;-143.84;62.11;45134.75;5131884;27;20441;-74
2022/09/20 11:36:56;;;;;;;1.40;1.03;;;;;;;-143.84;31.40;45007.19;5073895;28;20529;-74
2022/09/20 11:39:30;;;;;;;2.63;0.80;;;;;;;-143.84;32.17;45007.19;5068761;28;20455;-74
2022/09/20 11:42:00;;;;;;;3.93;0.90;;;;;;;-143.84;31.23;45003.38;5068769;28;20441;-74
2022/09/20 11:44:27;;;;;;;2.17;1.00;;;;;;;-143.84;30.03;44993.84;5068388;28;20437;-74
2022/09/20 11:47:00;;;;;;;1.40;0.90;;;;;;;-143.84;30.16;44993.84;5068730;28;20441;-73
2022/09/20 11:49:31;;;;;;;1.00;0.90;;;;;;;-143.84;31.24;44986.22;5068042;28;20468;-74
2022/09/20 11:52:17;;;;;;;1.87;1.13;;;;;;;-143.84;30.99;45003.38;5068118;28;20823;-74
2022/09/20 11:55:20;;;;;;;5.93;0.90;;;;;;;-143.84;31.48;45014.78;5060117;28;21051;-74
2022/09/20 11:58:00;;;;;;;6.87;1.07;;;;;;;-143.84;31.95;44984.31;5067459;28;20531;-74
2022/09/20 12:00:33;;;;;;;1.43;0.80;;;;;;;-143.84;31.53;44999.56;5068381;28;20470;-73
2022/09/20 12:03:02;;;;;;;2.80;0.93;;;;;;;-143.84;31.18;45010.97;5068462;28;20495;-74
2022/09/20 12:05:33;;;;;;;2.43;0.73;;;;;;;-143.84;31.97;45018.59;5068476;28;20522;-74
2022/09/20 12:08:05;;;;;;;1.70;0.87;;;;;;;-143.84;31.84;45018.59;5068748;28;20476;-74
2022/09/20 12:10:36;;;;;;;1.10;0.80;;;;;;;-143.84;31.01;44999.56;5068788;28;20806;-73
2022/09/20 12:13:07;;;;;;;1.17;0.93;;;;;;;-143.84;31.53;44984.31;5068638;28;20877;-73
2022/09/20 12:15:37;;;;;;;1.00;0.77;;;;;;;-143.84;31.73;45009.09;5069997;28;20429;-74
2022/09/20 12:18:22;;;;;;;1.40;1.20;;;;;;;-143.84;31.83;45005.28;5072428;28;20823;-74
2022/09/20 12:21:14;;;;;;;3.33;0.97;;;;;;;-143.84;32.40;45005.28;5072072;28;20445;-73
2022/09/20 12:24:19;;;;;;;1.73;1.00;;;;;;;-143.84;31.98;45012.88;5072155;28;21232;-74
2022/09/20 12:26:49;;;;;;;1.10;0.83;;;;;;;-143.84;31.41;44984.31;5072174;28;20433;-74
2022/09/20 12:29:50;;;;;;;6.80;0.87;;;;;;;-143.84;31.47;45014.78;5072179;28;20452;-74
2022/09/20 12:33:08;;;;;;;0.93;0.60;;;;;;;-143.84;31.54;44991.94;5071794;28;20531;-73
2022/09/20 12:36:13;;;;;;;1.10;0.70;;;;;;;-143.84;31.72;44978.63;5071708;28;20441;-74
2022/09/20 12:38:51;;;;;;;1.00;0.80;;;;;;;-143.84;31.75;44988.13;5071675;28;20441;-74
2022/09/20 12:41:21;;;;;;;1.10;0.80;;;;;;;-143.84;31.93;44980.53;5071707;28;20447;-73
2022/09/20 12:43:53;;;;;;;1.73;0.80;;;;;;;-143.84;32.71;44995.75;5071598;28;20441;-74
2022/09/20 12:46:25;;;;;;;1.30;0.90;;;;;;;-143.84;32.07;44999.56;5072020;28;20433;-74
2022/09/20 12:49:10;;;;;;;3.63;0.80;;;;;;;-143.84;31.89;45009.09;5071485;28;20449;-74
2022/09/20 12:54:21;;;;;;;3.43;0.90;;;;;;;-143.84;30.98;45010.97;5071775;28;20482;-74
2022/09/20 12:56:50;;;;;;;3.47;1.00;;;;;;;-143.84;30.98;44991.94;5071289;28;20445;-74
2022/09/20 12:59:26;;;;;;;3.97;0.90;;;;;;;-143.84;31.32;45001.47;5071528;28;20440;-75
2022/09/20 13:01:53;;;;;;;1.00;0.83;;;;;;;-143.84;31.61;45014.78;5071456;28;20444;-74
2022/09/20 13:04:56;;;;;;;1.00;0.80;;;;;;;-143.84;31.61;45001.47;5071417;28;20452;-74
2022/09/20 13:07:43;;;;;;;4.70;0.97;;;;;;;-143.84;31.22;45005.28;5071664;28;20441;-74
2022/09/20 13:10:30;;;;;;;1.27;0.83;;;;;;;-143.84;31.28;44997.66;5071079;28;20436;-74
2022/09/20 13:13:19;;;;;;;1.40;1.07;;;;;;;-143.84;31.63;45009.09;5071039;28;20488;-74
2022/09/20 13:15:52;;;;;;;3.67;0.90;;;;;;;-143.84;32.23;45016.69;5071370;28;20441;-74
2022/09/20 13:18:21;;;;;;;1.20;0.90;;;;;;;-143.84;31.40;45030.03;5071550;28;20855;-74
2022/09/20 13:20:50;;;;;;;1.40;1.00;;;;;;;-143.84;31.58;45016.69;5071158;28;20436;-74
2022/09/20 13:23:22;;;;;;;1.50;1.10;;;;;;;-143.84;31.85;44980.53;5071018;28;20437;-74
2022/09/20 13:25:50;;;;;;;9.30;0.90;;;;;;;-143.84;31.57;44997.66;5070889;28;20440;-74
2022/09/20 13:28:30;;;;;;;1.10;0.93;;;;;;;-143.84;31.67;45012.88;5070384;28;20483;-74
2022/09/20 13:31:36;;;;;;;3.20;1.17;;;;;;;-143.84;31.68;44997.66;5071273;28;20436;-74
2022/09/20 13:34:14;;;;;;;3.10;0.67;;;;;;;-143.84;31.92;45007.19;5065675;28;20578;-74
2022/09/20 13:36:42;;;;;;;1.37;0.90;;;;;;;-143.84;32.32;45026.22;5094016;28;20475;-74
2022/09/20 13:39:09;;;;;;;2.43;1.30;;;;;;;-143.84;32.28;45007.19;5111363;28;20431;-74
2022/09/20 13:41:37;;;;;;;1.90;1.20;;;;;;;-143.84;32.53;45005.28;5111249;28;20435;-74
2022/09/20 13:44:06;;;;;;;3.13;0.80;;;;;;;-143.84;31.97;45020.50;5111420;28;20443;-74
2022/09/20 13:46:33;;;;;;;2.43;0.97;;;;;;;-143.84;32.16;45010.97;5111520;28;20435;-74
2022/09/20 13:49:16;;;;;;;0.90;0.77;;;;;;;-143.84;31.77;45003.38;5111277;28;20446;-74
2022/09/20 13:51:44;;;;;;;3.37;0.90;;;;;;;-143.84;32.60;45009.09;5111361;28;20439;-73
2022/09/20 13:54:19;;;;;;;5.53;1.20;;;;;;;-143.84;32.35;44990.03;5110900;28;20471;-74
2022/09/20 13:56:46;;;;;;;5.77;0.80;;;;;;;-143.84;32.60;45030.03;5111368;28;20468;-74
2022/09/20 13:59:17;;;;;;;2.30;1.00;;;;;;;-143.84;32.52;45007.19;5110955;28;20505;-74
2022/09/20 14:01:50;;;;;;;0.97;0.83;;;;;;;-143.84;31.72;45030.03;5111428;28;20439;-74
2022/09/20 14:04:21;;;;;;;3.93;1.20;;;;;;;-143.84;32.31;45016.69;5111182;28;20526;-74
2022/09/20 14:06:49;;;;;;;1.00;0.70;;;;;;;-143.84;32.71;45018.59;5110935;28;20517;-74
2022/09/20 14:09:25;;;;;;;1.60;1.00;;;;;;;-143.84;32.59;45030.03;5110709;28;20439;-74
2022/09/20 14:11:54;;;;;;;4.90;1.00;;;;;;;-143.84;32.52;45047.16;5110904;28;20521;-74
2022/09/20 14:14:24;;;;;;;1.40;0.87;;;;;;;-143.84;32.66;44999.56;5110898;28;20475;-74
2022/09/20 14:16:53;;;;;;;7.13;1.30;;;;;;;-143.84;32.61;45022.41;5110590;28;20446;-74
2022/09/20 14:19:23;;;;;;;3.63;1.07;;;;;;;-143.84;32.12;45016.69;5110472;28;20431;-74
2022/09/20 14:21:50;;;;;;;1.60;1.20;;;;;;;-143.84;31.29;45016.69;5110894;28;20484;-73
2022/09/20 14:24:34;;;;;;;1.27;0.90;;;;;;;-143.84;31.66;44997.66;5110318;28;20450;-73
2022/09/20 14:27:20;;;;;;;2.03;0.83;;;;;;;-143.84;31.50;45020.50;5110763;28;20470;-74
2022/09/20 14:29:51;;;;;;;3.63;0.80;;;;;;;-143.84;31.62;44995.75;5110135;28;20451;-74
2022/09/20 14:32:33;;;;;;;5.50;0.83;;;;;;;-143.84;31.77;45005.28;5110185;28;20844;-74
2022/09/20 14:35:03;;;;;;;1.10;0.70;;;;;;;-143.84;31.51;45022.41;5110128;28;20478;-74
2022/09/20 14:37:33;;;;;;;2.23;1.00;;;;;;;-143.84;31.97;44995.75;5109863;28;20475;-74
2022/09/20 14:40:03;;;;;;;1.47;0.80;;;;;;;-143.84;31.79;45007.19;5109233;28;20932;-74
2022/09/20 14:42:34;;;;;;;1.00;0.80;;;;;;;-143.84;31.47;45024.31;5110308;28;20479;-73
2022/09/20 14:45:05;;;;;;;6.53;0.83;;;;;;;-143.84;32.14;45020.50;5110159;28;20439;-74
2022/09/20 14:47:38;;;;;;;4.20;0.90;;;;;;;-143.84;32.35;45018.59;5109960;28;20819;-74
2022/09/20 14:50:22;;;;;;;1.17;0.80;;;;;;;-143.84;31.84;45018.59;5109935;28;20439;-74
2022/09/20 14:53:05;;;;;;;3.53;0.80;;;;;;;-143.84;32.22;45028.13;5108919;28;20434;-74
2022/09/20 14:55:33;;;;;;;2.40;1.30;;;;;;;-143.84;32.64;45010.97;5109265;28;20427;-74
2022/09/20 14:58:02;;;;;;;8.37;0.97;;;;;;;-143.84;32.70;45035.75;5109070;28;20431;-74
2022/09/20 15:00:47;;;;;;;1.00;0.90;;;;;;;-143.84;32.77;45037.66;5109386;28;20446;-74
2022/09/20 15:03:17;;;;;;;1.27;0.70;;;;;;;-143.84;32.94;45009.09;5110024;28;20807;-74
2022/09/20 15:05:49;;;;;;;1.00;0.90;;;;;;;-143.84;33.02;45024.31;5109555;28;20449;-74
2022/09/20 15:08:18;;;;;;;1.17;0.70;;;;;;;-143.84;32.94;45045.25;5109762;28;20443;-74
2022/09/20 15:10:46;;;;;;;1.00;0.80;;;;;;;-143.84;32.73;45020.50;5109623;28;20454;-74
2022/09/20 15:13:13;;;;;;;2.67;1.20;;;;;;;-143.84;33.14;45033.84;5109545;28;20443;-74
2022/09/20 15:15:43;;;;;;;1.33;1.00;;;;;;;-143.84;32.87;45037.66;5109663;28;20446;-74
2022/09/20 15:18:20;;;;;;;3.50;0.90;;;;;;;-143.84;33.25;45022.41;5109844;28;21007;-74
2022/09/20 15:20:47;;;;;;;0.90;0.60;;;;;;;-143.84;33.08;45026.22;5109676;28;20529;-74
2022/09/20 15:23:14;;;;;;;1.37;0.80;;;;;;;-143.84;33.03;45020.50;5109565;28;20439;-74
2022/09/20 15:25:41;;;;;;;1.40;0.80;;;;;;;-143.84;32.94;45026.22;5109583;28;20442;-74
2022/09/20 15:28:14;;;;;;;1.70;1.07;;;;;;;-143.84;33.21;45041.44;5110387;28;20439;-76
2022/09/20 15:30:43;;;;;;;3.03;1.00;;;;;;;-143.84;32.77;45020.50;5106946;28;20952;-77
2022/09/20 15:33:11;;;;;;;1.77;0.80;;;;;;;-143.84;32.51;45049.06;5109354;28;20567;-76
2022/09/20 15:35:39;;;;;;;1.17;1.03;;;;;;;-143.84;32.50;45016.69;5109243;28;20879;-76
2022/09/20 15:38:09;;;;;;;3.30;0.80;;;;;;;-143.84;32.40;45010.97;5109632;28;21282;-75
2022/09/20 15:40:38;;;;;;;1.10;0.90;;;;;;;-143.84;32.37;45037.66;5109407;28;20447;-76
2022/09/20 15:43:08;;;;;;;4.30;1.13;;;;;;;-143.84;32.46;45028.13;5109792;28;20567;-77
2022/09/20 15:45:36;;;;;;;0.90;0.70;;;;;;;-143.84;32.71;45018.59;5110721;28;20925;-77
2022/09/20 15:48:05;;;;;;;1.00;0.90;;;;;;;-143.84;32.89;45037.66;5110146;28;20442;-77
2022/09/20 15:50:33;;;;;;;1.10;0.97;;;;;;;-143.84;33.15;45047.16;5111821;28;20439;-78
2022/09/20 15:53:00;;;;;;;1.00;0.90;;;;;;;-143.84;33.11;45030.03;5114072;28;20809;-77
2022/09/20 15:55:27;;;;;;;2.07;1.20;;;;;;;-143.84;33.37;45010.97;5112139;28;20482;-77
2022/09/20 15:57:54;;;;;;;1.00;0.90;;;;;;;-143.84;33.57;45039.53;5114946;28;20864;-79
2022/09/20 16:00:21;;;;;;;2.20;1.37;;;;;;;-143.84;33.62;45028.13;5113080;28;20514;-78
2022/09/20 16:02:49;;;;;;;3.00;1.07;;;;;;;-143.84;33.57;45047.16;5112725;28;20445;-76
2022/09/20 16:05:18;;;;;;;2.13;1.47;;;;;;;-143.84;34.11;45022.41;5113651;28;20435;-78
2022/09/20 16:07:46;;;;;;;1.10;0.97;;;;;;;-143.84;33.88;45026.22;5114396;28;20447;-75
2022/09/20 16:10:13;;;;;;;6.40;2.40;;;;;;;-143.84;34.09;45035.75;5113525;28;21125;-76
2022/09/20 16:12:40;;;;;;;3.50;2.90;;;;;;;-143.84;34.22;45022.41;5113497;28;20446;-76
2022/09/20 16:15:08;;;;;;;2.30;1.50;;;;;;;-143.84;34.00;45033.84;5113426;28;20475;-76
2022/09/20 16:20:22;;;;;;;8.30;1.20;;;;;;;-143.84;34.23;45010.97;5114403;28;20496;-78
2022/09/20 16:22:49;;;;;;;6.77;2.87;;;;;;;-143.84;34.22;45041.44;5114093;28;20449;-75
2022/09/20 16:25:16;;;;;;;2.53;2.17;;;;;;;-143.84;34.36;45022.41;5113009;28;20479;-75
2022/09/20 16:27:43;;;;;;;7.53;4.67;;;;;;;-143.84;34.19;45041.44;5112469;28;20450;-74
2022/09/20 16:30:12;;;;;;;6.20;4.60;;;;;;;-143.84;34.44;45030.03;5113020;28;20434;-76
2022/09/20 16:32:39;;;;;;;5.10;3.63;;;;;;;-143.84;34.58;45062.41;5113593;28;20458;-78
2022/09/20 16:35:07;;;;;;;5.53;4.50;;;;;;;-143.84;34.57;45018.59;5113062;28;20471;-73
2022/09/20 16:37:38;;;;;;;12.63;4.40;;;;;;;-143.84;34.60;45039.53;5109900;28;20479;-74
2022/09/20 16:40:06;;;;;;;10.60;5.60;;;;;;;-143.84;34.69;45033.84;5107428;27;20446;-76
2022/09/20 16:42:33;;;;;;;4.30;3.60;;;;;;;-143.84;34.88;45043.34;5110771;27;20452;-75
2022/09/20 16:45:00;;;;;;;7.07;3.43;;;;;;;-143.84;35.07;45047.16;5108230;27;20881;-76
2022/09/20 16:47:28;;;;;;;5.10;2.40;;;;;;;-143.84;35.48;45047.16;5107793;27;20451;-75
2022/09/20 16:49:55;;;;;;;4.70;2.40;;;;;;;-143.84;35.32;45035.75;5109028;27;20899;-74
2022/09/20 16:52:25;;;;;;;5.87;2.30;;;;;;;-143.84;35.56;45037.66;5108514;27;20442;-75
2022/09/20 16:54:53;;;;;;;5.27;2.17;;;;;;;-143.84;35.73;45037.66;5109256;27;20521;-75
2022/09/20 16:57:21;;;;;;;4.17;2.70;;;;;;;-143.84;35.70;45037.66;5108124;27;20961;-76
2022/09/20 16:59:50;;;;;;;3.07;2.77;;;;;;;-143.84;35.83;45039.53;5108537;27;20948;-75
2022/09/20 17:02:17;;;;;;;4.70;2.60;;;;;;;-143.84;35.83;45018.59;5107323;27;20458;-76
2022/09/20 17:04:44;;;;;;;2.30;2.10;;;;;;;-143.84;36.11;45031.94;5107227;27;20467;-75
2022/09/20 17:07:11;;;;;;;3.10;2.23;;;;;;;-143.84;36.17;45047.16;5091687;28;20500;-76
2022/09/20 17:09:39;;;;;;;5.70;2.63;;;;;;;-143.84;36.34;45037.66;5091663;28;20952;-75
2022/09/20 17:12:08;;;;;;;3.60;2.10;;;;;;;-143.84;36.36;45045.25;5089947;28;20917;-76
2022/09/20 17:14:37;;;;;;;5.77;2.13;;;;;;;-143.84;36.60;45022.41;5090236;28;20506;-76
2022/09/20 17:17:05;;;;;;;6.67;2.00;;;;;;;-143.84;36.68;45050.97;5090249;28;20440;-74
2022/09/20 17:19:32;;;;;;;41.00;18.67;;;;;;;-143.84;36.84;45035.75;5090111;28;21008;-77
2022/09/20 17:22:00;;;;;;;20.77;12.30;;;;;;;-143.84;37.03;45052.88;5090159;28;20443;-76
2022/09/20 17:24:29;;;;;;;9.03;5.90;;;;;;;-143.84;37.17;45050.97;5089982;28;20585;-77
2022/09/20 17:26:56;;;;;;;10.50;5.60;;;;;;;-143.84;37.50;45047.16;5090101;28;20530;-78
2022/09/20 17:29:26;;;;;;;11.10;6.20;;;;;;;-143.84;37.50;45056.69;5091215;28;20952;-77
2022/09/20 17:31:58;;;;;;;7.57;5.40;;;;;;;-143.84;37.76;45037.66;5092344;28;20984;-78
2022/09/20 17:34:28;;;;;;;6.83;4.40;;;;;;;-143.84;37.72;45049.06;5091903;28;20504;-76
2022/09/20 17:36:55;;;;;;;4.43;2.90;;;;;;;-143.84;37.90;45052.88;5091111;28;20561;-76
2022/09/20 17:39:22;;;;;;;6.13;3.00;;;;;;;-143.84;38.02;45052.88;5091077;28;20430;-76
2022/09/20 17:41:51;;;;;;;6.93;2.30;;;;;;;-143.84;38.08;45039.53;5090770;28;21370;-75
2022/09/20 17:44:18;;;;;;;2.73;2.13;;;;;;;-143.84;37.98;45043.34;5090992;28;20442;-75
2022/09/20 17:46:48;;;;;;;4.53;2.17;;;;;;;-143.84;38.29;45041.44;5091084;28;20796;-76
2022/09/20 17:49:18;;;;;;;2.40;2.20;;;;;;;-143.84;38.55;45064.31;5091306;28;20783;-76
2022/09/20 17:51:47;;;;;;;3.80;2.43;;;;;;;-143.84;38.72;45033.84;5090103;28;20447;-76
2022/09/20 17:54:15;;;;;;;5.73;2.13;;;;;;;-143.84;38.75;45052.88;5090443;28;20433;-77
2022/09/20 17:56:43;;;;;;;5.63;2.27;;;;;;;-143.84;38.81;45037.66;5089661;27;20457;-76
2022/09/20 17:59:11;;;;;;;3.13;2.17;;;;;;;-143.84;38.89;45031.94;5090754;28;20434;-76
2022/09/20 18:01:39;;;;;;;6.27;2.10;;;;;;;-143.84;39.03;45052.88;5091365;28;20450;-76
2022/09/20 18:04:08;;;;;;;7.07;2.33;;;;;;;-143.84;40.08;45104.28;5090567;28;20448;-75
2022/09/20 18:06:37;;;;;;;6.37;2.30;;;;;;;-143.84;40.54;45052.88;5091644;28;20446;-78
2022/09/20 18:09:06;;;;;;;9.10;2.40;;;;;;;-143.84;41.03;45075.72;5091881;28;20492;-77
2022/09/20 18:11:35;;;;;;;13.73;3.20;;;;;;;-143.84;44.21;45056.69;5090554;28;20433;-77
2022/09/20 18:14:04;;;;;;;7.23;2.67;;;;;;;-143.84;44.98;45052.88;5100662;27;20844;-76
2022/09/20 18:16:33;;;;;;;5.67;2.80;;;;;;;-143.84;44.78;45043.34;5110118;27;20459;-76
2022/09/20 18:19:01;;;;;;;12.40;3.00;;;;;;;-143.84;47.49;45075.72;5105476;27;20504;-77
2022/09/20 18:21:32;;;;;;;13.17;3.70;;;;;;;-143.84;50.06;45047.16;5109470;27;20444;-76
2022/09/20 18:23:59;;;;;;;7.97;3.07;;;;;;;-143.84;50.64;45031.94;5109584;27;20450;-76
2022/09/20 18:26:31;;;;;;;14.43;2.70;;;;;;;-143.84;48.85;45035.75;5110295;27;20452;-78
2022/09/20 18:29:00;;;;;;;6.67;2.67;;;;;;;-143.84;50.29;45066.22;5109797;27;20461;-76
2022/09/20 18:31:31;;;;;;;6.70;2.60;;;;;;;-143.84;47.92;45020.50;5106502;27;20500;-76
2022/09/20 18:34:00;;;;;;;5.90;2.37;;;;;;;-143.84;47.28;45058.59;5107013;27;20543;-76
2022/09/20 18:36:30;;;;;;;7.17;1.97;;;;;;;-143.84;46.70;45043.34;5104461;27;20495;-77
2022/09/20 18:38:58;;;;;;;6.70;1.90;;;;;;;-143.84;46.24;45090.97;5110133;27;21371;-76
2022/09/20 18:41:30;;;;;;;3.33;1.90;;;;;;;-143.84;46.95;45068.13;5109097;27;21168;-77
2022/09/20 18:43:58;;;;;;;3.53;2.20;;;;;;;-143.84;46.04;45066.22;5109133;27;20444;-77
2022/09/20 18:46:29;;;;;;;6.70;2.30;;;;;;;-143.84;46.24;45071.91;5101713;27;20443;-76
2022/09/20 18:48:58;;;;;;;4.70;1.73;;;;;;;-143.84;46.17;45062.41;5109339;27;20996;-76
2022/09/20 18:51:28;;;;;;;1.63;1.17;;;;;;;-143.84;47.42;45052.88;5101830;27;20443;-76
2022/09/20 18:53:57;;;;;;;1.47;1.30;;;;;;;-143.84;47.01;45064.31;5109158;27;20437;-76
2022/09/20 18:56:27;;;;;;;12.93;1.50;;;;;;;-143.84;46.78;45054.78;5107147;27;20469;-77
2022/09/20 18:58:56;;;;;;;1.67;1.57;;;;;;;-143.84;47.14;45060.50;5104366;27;20535;-76
2022/09/20 19:01:48;;;;;;;1.77;1.33;;;;;;;-143.84;46.70;45087.16;5099551;27;20774;-77
2022/09/20 19:04:42;;;;;;;1.50;1.40;;;;;;;-143.84;46.64;45068.13;5106356;27;20531;-77
2022/09/20 19:07:19;;;;;;;6.10;1.37;;;;;;;-143.84;47.44;45068.13;5096430;27;20435;-76
2022/09/20 19:09:53;;;;;;;4.70;1.70;;;;;;;-143.84;46.68;45092.88;5101594;27;20433;-76
2022/09/20 19:12:27;;;;;;;4.30;1.10;;;;;;;-143.84;46.05;45083.34;5105033;27;20458;-77
2022/09/20 19:15:15;;;;;;;2.60;1.40;;;;;;;-143.84;45.68;45054.78;5103843;27;20486;-77
2022/09/20 19:17:59;;;;;;;2.07;1.20;;;;;;;-143.84;45.81;45068.13;5100562;27;20933;-76
2022/09/20 19:20:32;;;;;;;2.90;1.20;;;;;;;-143.84;45.99;45081.44;5093611;28;20858;-77
2022/09/20 19:23:10;;;;;;;3.97;1.00;;;;;;;-143.84;45.90;45058.59;5095509;27;20545;-77
2022/09/20 19:25:43;;;;;;;1.20;1.10;;;;;;;-143.84;45.91;45060.50;5099718;27;20928;-76
2022/09/20 19:28:11;;;;;;;5.43;0.87;;;;;;;-143.84;46.16;45079.53;5112721;27;20757;-76
2022/09/20 19:30:40;;;;;;;1.93;1.37;;;;;;;-143.84;46.06;45087.16;5107113;27;20450;-76
2022/09/20 19:33:16;;;;;;;1.30;1.20;;;;;;;-143.84;46.17;45066.22;5099724;27;20442;-76
2022/09/20 19:35:46;;;;;;;1.00;0.90;;;;;;;-143.84;45.97;45064.31;5108552;27;21075;-75
2022/09/20 19:38:22;;;;;;;2.80;0.90;;;;;;;-143.84;45.99;45064.31;5104775;27;20436;-76
2022/09/20 19:41:03;;;;;;;1.20;1.10;;;;;;;-143.84;45.92;45054.78;5102888;28;20453;-75
2022/09/20 19:43:50;;;;;;;4.90;1.33;;;;;;;-143.84;45.86;45073.81;5111723;28;20450;-75
2022/09/20 19:46:33;;;;;;;2.13;1.10;;;;;;;-143.84;45.63;45081.44;5105255;28;20437;-75
2022/09/20 19:49:07;;;;;;;1.53;1.20;;;;;;;-143.84;46.01;45081.44;5103110;28;20435;-75
2022/09/20 19:51:37;;;;;;;5.73;1.30;;;;;;;-143.84;46.04;45068.13;5105872;28;20524;-75
2022/09/20 19:54:06;;;;;;;2.60;1.40;;;;;;;-143.84;45.91;45052.88;5108901;28;20439;-75
2022/09/20 19:56:47;;;;;;;1.30;1.10;;;;;;;-143.84;46.14;45066.22;5109654;28;20478;-75
2022/09/20 19:59:16;;;;;;;2.60;1.37;;;;;;;-143.84;46.26;45045.25;5109749;28;21253;-75
2022/09/20 20:01:44;;;;;;;2.07;1.40;;;;;;;-143.84;46.45;45106.19;5097915;28;20439;-75
2022/09/20 20:04:12;;;;;;;1.30;1.17;;;;;;;-143.84;46.49;45071.91;5097769;28;20462;-75
2022/09/20 20:06:46;;;;;;;0.93;0.83;;;;;;;-143.84;46.72;45087.16;5109495;28;20488;-75
2022/09/20 20:09:20;;;;;;;15.00;1.60;;;;;;;-143.84;46.85;45045.25;5109344;28;20455;-75
2022/09/20 20:12:00;;;;;;;3.73;1.13;;;;;;;-143.84;46.95;45079.53;5109359;28;20959;-75
2022/09/20 20:14:34;;;;;;;2.30;1.30;;;;;;;-143.84;47.23;45043.34;5109294;28;20862;-75
2022/09/20 20:17:12;;;;;;;10.93;1.10;;;;;;;-143.84;47.60;45071.91;5108968;28;20537;-75
2022/09/20 20:19:51;;;;;;;1.77;1.20;;;;;;;-143.84;47.83;45079.53;5109316;28;20494;-75
2022/09/20 20:22:33;;;;;;;1.30;1.13;;;;;;;-143.84;48.17;45062.41;5107787;28;20443;-75
2022/09/20 20:25:00;;;;;;;1.00;0.90;;;;;;;-143.84;48.34;45043.34;5109129;28;20450;-75
2022/09/20 20:27:31;;;;;;;5.60;1.17;;;;;;;-143.84;48.47;45054.78;5109391;28;20450;-75
2022/09/20 20:29:59;;;;;;;1.93;1.20;;;;;;;-143.84;48.32;45031.94;5109351;28;20470;-75
2022/09/20 20:32:26;;;;;;;2.80;1.10;;;;;;;-143.84;48.47;45064.31;5109523;28;20553;-75
2022/09/20 20:34:53;;;;;;;5.63;1.90;;;;;;;-143.84;48.56;45089.06;5109817;28;20438;-75
2022/09/20 20:37:23;;;;;;;2.60;1.37;;;;;;;-143.84;48.54;45064.31;5112154;28;20580;-75
2022/09/20 20:39:50;;;;;;;4.00;1.30;;;;;;;-143.84;48.56;45079.53;5113192;28;20442;-75
2022/09/20 20:42:19;;;;;;;1.27;1.17;;;;;;;-143.84;48.63;45094.78;5113281;28;20438;-75
2022/09/20 20:44:48;;;;;;;1.67;1.37;;;;;;;-143.84;48.82;45071.91;5112974;28;20445;-75
2022/09/20 20:47:15;;;;;;;1.40;1.00;;;;;;;-143.84;49.05;45037.66;5112867;28;20446;-75
2022/09/20 20:49:42;;;;;;;1.60;1.50;;;;;;;-143.84;48.85;45089.06;5112228;28;20449;-75
2022/09/20 20:52:10;;;;;;;2.17;1.40;;;;;;;-143.84;48.88;45075.72;5112215;28;20442;-75
2022/09/20 20:54:37;;;;;;;2.00;1.03;;;;;;;-143.84;48.94;45049.06;5111117;28;20446;-76
2022/09/20 20:57:04;;;;;;;10.17;1.63;;;;;;;-143.84;48.88;45066.22;5112465;28;20470;-76
2022/09/20 20:59:31;;;;;;;1.30;1.20;;;;;;;-143.84;49.03;45077.63;5112999;28;20489;-76
2022/09/20 21:02:00;;;;;;;2.13;1.37;;;;;;;-143.84;48.70;45081.44;5112888;28;20470;-74
2022/09/20 21:04:30;;;;;;;1.90;1.10;;;;;;;-143.84;48.88;45081.44;5112099;28;20502;-74
2022/09/20 21:06:58;;;;;;;4.10;1.53;;;;;;;-143.84;48.83;45075.72;5112147;28;20437;-73
2022/09/20 21:09:25;;;;;;;2.43;1.40;;;;;;;-143.84;49.03;45052.88;5111741;28;20451;-74
2022/09/20 21:11:52;;;;;;;1.67;1.40;;;;;;;-143.84;48.94;45075.72;5111845;28;20495;-74
2022/09/20 21:14:19;;;;;;;4.20;1.60;;;;;;;-143.84;49.00;45079.53;5111882;28;20489;-73
2022/09/20 21:16:46;;;;;;;3.00;1.33;;;;;;;-143.84;48.97;45087.16;5112053;28;20603;-74
2022/09/20 21:19:15;;;;;;;1.97;1.77;;;;;;;-143.84;49.35;45077.63;5111721;28;20457;-74
2022/09/20 21:21:44;;;;;;;1.40;1.30;;;;;;;-143.84;49.60;45064.31;5112008;28;20454;-74
2022/09/20 21:24:14;;;;;;;2.77;1.40;;;;;;;-143.84;49.59;45087.16;5111553;28;20494;-73